createdAt,value
2023-09-26T00:00:27.803Z,14.50
2023-09-26T00:02:55.536Z,14.60
2023-09-26T00:05:25.244Z,14.50
2023-09-26T00:07:52.868Z,14.50
2023-09-26T00:10:21.579Z,14.00
2023-09-26T00:12:49.951Z,13.90
2023-09-26T00:15:17.171Z,14.00
2023-09-26T00:17:44.846Z,14.30
2023-09-26T00:20:16.954Z,13.80
2023-09-26T00:22:44.413Z,14.10
2023-09-26T00:25:14.339Z,13.80
2023-09-26T00:27:41.203Z,13.50
2023-09-26T00:30:11.783Z,13.60
2023-09-26T00:32:39.932Z,13.70
2023-09-26T00:35:10.205Z,13.80
2023-09-26T00:37:37.324Z,13.70
2023-09-26T00:40:05.238Z,14.20
2023-09-26T00:42:32.178Z,14.20
2023-09-26T00:44:59.031Z,14.00
2023-09-26T00:47:26.050Z,13.50
2023-09-26T00:49:53.025Z,13.40
2023-09-26T00:52:20.400Z,13.60
2023-09-26T00:54:47.503Z,13.70
2023-09-26T00:57:14.561Z,13.50
2023-09-26T00:59:41.600Z,13.50
2023-09-26T01:02:09.433Z,13.50
2023-09-26T01:04:37.281Z,13.70
2023-09-26T01:07:04.220Z,13.70
2023-09-26T01:09:31.176Z,13.60
2023-09-26T01:11:58.594Z,13.80
2023-09-26T01:14:25.977Z,13.70
2023-09-26T01:16:57.099Z,13.30
2023-09-26T01:19:24.205Z,13.40
2023-09-26T01:21:51.203Z,13.30
2023-09-26T01:24:18.728Z,13.50
2023-09-26T01:26:46.142Z,13.20
2023-09-26T01:29:13.554Z,13.40
2023-09-26T01:31:40.937Z,13.30
2023-09-26T01:34:09.277Z,13.30
2023-09-26T01:36:36.607Z,13.50
2023-09-26T01:39:03.940Z,13.60
2023-09-26T01:41:31.759Z,13.70
2023-09-26T01:43:59.261Z,13.50
2023-09-26T01:46:27.229Z,13.50
2023-09-26T01:48:54.589Z,13.50
2023-09-26T01:51:22.213Z,13.60
2023-09-26T01:53:49.815Z,13.70
2023-09-26T01:56:17.057Z,13.60
2023-09-26T01:58:44.152Z,13.40
2023-09-26T02:01:11.395Z,13.50
2023-09-26T02:03:38.594Z,13.60
2023-09-26T02:06:06.142Z,13.60
2023-09-26T02:08:33.589Z,13.50
2023-09-26T02:11:00.926Z,13.70
2023-09-26T02:13:28.053Z,13.30
2023-09-26T02:15:56.009Z,13.20
2023-09-26T02:18:23.422Z,13.40
2023-09-26T02:20:50.737Z,13.40
2023-09-26T02:23:17.853Z,13.50
2023-09-26T02:25:54.017Z,13.40
2023-09-26T02:28:21.753Z,13.50
2023-09-26T02:30:49.365Z,13.30
2023-09-26T02:33:17.005Z,13.60
2023-09-26T02:35:44.076Z,13.00
2023-09-26T02:38:11.309Z,12.80
2023-09-26T02:40:38.433Z,12.80
2023-09-26T02:43:05.590Z,12.70
2023-09-26T02:45:32.667Z,12.80
2023-09-26T02:48:01.191Z,13.10
2023-09-26T02:50:28.547Z,12.70
2023-09-26T02:52:55.935Z,12.80
2023-09-26T02:55:23.483Z,12.70
2023-09-26T02:57:50.999Z,12.70
2023-09-26T03:00:19.525Z,13.10
2023-09-26T03:02:48.247Z,12.90
2023-09-26T03:05:17.134Z,12.80
2023-09-26T03:07:44.563Z,12.80
2023-09-26T03:10:12.672Z,13.10
2023-09-26T03:12:48.381Z,13.30
2023-09-26T03:15:16.235Z,13.40
2023-09-26T03:17:43.423Z,13.20
2023-09-26T03:20:12.054Z,13.00
2023-09-26T03:22:39.441Z,12.90
2023-09-26T03:25:07.460Z,12.80
2023-09-26T03:27:34.855Z,12.90
2023-09-26T03:30:02.415Z,13.00
2023-09-26T03:32:29.838Z,13.00
2023-09-26T03:34:57.141Z,12.80
2023-09-26T03:37:24.817Z,12.80
2023-09-26T03:39:52.286Z,12.60
2023-09-26T03:42:19.713Z,12.70
2023-09-26T03:44:46.986Z,12.80
2023-09-26T03:47:15.402Z,13.10
2023-09-26T03:49:43.025Z,12.90
2023-09-26T03:52:10.560Z,12.90
2023-09-26T03:54:38.502Z,12.70
2023-09-26T03:57:05.982Z,12.60
2023-09-26T03:59:34.423Z,12.90
2023-09-26T04:02:02.322Z,13.00
2023-09-26T04:04:32.913Z,12.90
2023-09-26T04:07:00.404Z,12.80
2023-09-26T04:09:27.660Z,12.30
2023-09-26T04:11:55.281Z,12.70
2023-09-26T04:14:22.510Z,12.50
2023-09-26T04:16:49.724Z,12.70
2023-09-26T04:19:17.031Z,12.40
2023-09-26T04:21:44.309Z,12.30
2023-09-26T04:24:11.875Z,12.10
2023-09-26T04:26:38.909Z,12.10
2023-09-26T04:29:06.648Z,12.20
2023-09-26T04:31:33.888Z,12.30
2023-09-26T04:34:01.223Z,12.70
2023-09-26T04:36:30.985Z,12.90
2023-09-26T04:38:58.656Z,12.70
2023-09-26T04:41:25.736Z,12.60
2023-09-26T04:43:53.039Z,12.20
2023-09-26T04:46:20.504Z,12.40
2023-09-26T04:48:48.007Z,12.80
2023-09-26T04:51:16.619Z,12.60
2023-09-26T04:53:44.169Z,12.70
2023-09-26T04:56:11.546Z,12.90
2023-09-26T04:58:39.498Z,12.50
2023-09-26T05:01:17.233Z,12.30
2023-09-26T05:03:45.851Z,12.30
2023-09-26T05:06:14.708Z,12.60
2023-09-26T05:08:42.437Z,12.50
2023-09-26T05:11:16.551Z,12.70
2023-09-26T05:13:45.268Z,12.50
2023-09-26T05:16:14.942Z,12.60
2023-09-26T05:18:42.818Z,12.60
2023-09-26T05:21:11.238Z,12.60
2023-09-26T05:23:38.800Z,12.60
2023-09-26T05:26:09.072Z,12.50
2023-09-26T05:28:36.633Z,12.70
2023-09-26T05:31:04.167Z,12.50
2023-09-26T05:33:31.861Z,12.50
2023-09-26T05:35:59.155Z,12.40
2023-09-26T05:38:29.807Z,12.50
2023-09-26T05:40:57.045Z,12.50
2023-09-26T05:43:24.585Z,12.70
2023-09-26T05:45:55.157Z,12.70
2023-09-26T05:48:22.948Z,12.70
2023-09-26T05:50:50.217Z,12.70
2023-09-26T05:53:19.157Z,12.70
2023-09-26T05:55:46.666Z,12.80
2023-09-26T05:58:14.002Z,12.50
2023-09-26T06:00:41.683Z,12.20
2023-09-26T06:03:09.076Z,12.50
2023-09-26T06:05:39.861Z,12.20
2023-09-26T06:08:07.801Z,11.90
2023-09-26T06:10:35.529Z,12.10
2023-09-26T06:13:03.491Z,12.10
2023-09-26T06:15:32.624Z,12.20
2023-09-26T06:18:03.745Z,12.50
2023-09-26T06:20:32.130Z,12.70
2023-09-26T06:22:59.345Z,12.30
2023-09-26T06:25:29.477Z,12.50
2023-09-26T06:27:59.660Z,12.70
2023-09-26T06:30:27.262Z,12.90
2023-09-26T06:32:55.209Z,13.10
2023-09-26T06:35:22.459Z,12.90
2023-09-26T06:37:49.796Z,13.10
2023-09-26T06:40:17.317Z,13.10
2023-09-26T06:42:44.560Z,12.90
2023-09-26T06:45:12.453Z,12.90
2023-09-26T06:47:40.021Z,13.20
2023-09-26T06:50:12.077Z,13.20
2023-09-26T06:52:39.997Z,13.40
2023-09-26T06:55:11.837Z,13.40
2023-09-26T06:57:40.423Z,13.40
2023-09-26T07:14:05.255Z,14.00
2023-09-26T07:33:55.466Z,15.30
2023-09-26T07:51:51.441Z,16.10
2023-09-26T07:58:16.989Z,16.40
2023-09-26T08:01:18.304Z,16.30
2023-09-26T08:04:00.157Z,16.70
2023-09-26T08:07:02.080Z,16.80
2023-09-26T08:10:06.890Z,16.90
2023-09-26T08:13:22.642Z,17.10
2023-09-26T08:20:50.760Z,17.10
2023-09-26T08:24:33.868Z,17.20
2023-09-26T08:27:25.169Z,17.40
2023-09-26T08:30:34.473Z,17.70
2023-09-26T08:37:33.273Z,17.50
2023-09-26T08:40:18.014Z,17.90
2023-09-26T08:43:14.963Z,18.00
2023-09-26T08:46:36.100Z,18.00
2023-09-26T08:53:32.107Z,18.60
2023-09-26T08:57:18.531Z,18.60
2023-09-26T09:00:37.715Z,19.00
2023-09-26T09:07:14.306Z,18.90
2023-09-26T09:10:45.920Z,19.20
2023-09-26T09:13:43.276Z,19.10
2023-09-26T09:17:10.226Z,18.80
2023-09-26T09:20:04.557Z,19.40
2023-09-26T09:32:58.141Z,19.50
2023-09-26T09:39:26.859Z,19.90
2023-09-26T09:42:24.389Z,19.90
2023-09-26T09:45:38.812Z,19.80
2023-09-26T09:49:01.413Z,19.40
2023-09-26T09:52:34.420Z,19.80
2023-09-26T10:02:29.358Z,20.10
2023-09-26T10:05:30.408Z,20.00
2023-09-26T10:21:07.314Z,20.20
2023-09-26T10:38:42.780Z,20.40
2023-09-26T10:41:21.996Z,20.50
2023-09-26T10:44:49.369Z,20.40
2023-09-26T10:48:17.432Z,20.50
2023-09-26T10:51:46.695Z,20.80
2023-09-26T11:02:50.885Z,21.00
2023-09-26T11:11:02.278Z,21.30
2023-09-26T11:13:48.828Z,21.50
2023-09-26T11:17:06.129Z,21.70
2023-09-26T11:20:00.849Z,21.60
2023-09-26T11:23:01.496Z,21.80
2023-09-26T11:30:11.749Z,21.90
2023-09-26T11:41:50.959Z,22.10
2023-09-26T12:00:27.255Z,22.70
2023-09-26T12:03:29.398Z,22.90
2023-09-26T12:06:32.982Z,23.20
2023-09-26T12:13:00.027Z,23.20
2023-09-26T12:26:30.692Z,24.70
2023-09-26T12:37:10.199Z,25.30
2023-09-26T12:52:12.240Z,25.80
2023-09-26T13:16:33.051Z,25.80
2023-09-26T13:23:16.340Z,26.60
2023-09-26T13:26:04.718Z,26.50
2023-09-26T13:41:03.380Z,27.20
2023-09-26T13:47:40.413Z,27.30
2023-09-26T13:50:55.414Z,27.60
2023-09-26T14:07:28.863Z,27.20
2023-09-26T14:10:10.688Z,27.80
2023-09-26T14:13:10.609Z,27.60
2023-09-26T14:16:44.024Z,27.40
2023-09-26T14:20:05.643Z,27.10
2023-09-26T14:23:01.564Z,27.20
2023-09-26T14:26:52.841Z,27.70
2023-09-26T14:33:45.545Z,27.40
2023-09-26T14:51:45.910Z,27.90
2023-09-26T14:54:47.745Z,28.20
2023-09-26T15:04:26.323Z,27.40
2023-09-26T15:07:27.788Z,27.70
2023-09-26T15:14:21.457Z,27.80
2023-09-26T15:24:48.097Z,27.80
2023-09-26T15:44:25.419Z,27.40
2023-09-26T15:55:18.510Z,26.80
2023-09-26T15:58:40.180Z,26.50
2023-09-26T16:05:35.445Z,26.00
2023-09-26T16:08:35.188Z,25.50
2023-09-26T16:20:47.616Z,24.20
2023-09-26T16:23:35.104Z,24.00
2023-09-26T16:27:39.554Z,23.80
2023-09-26T16:29:13.109Z,23.30
2023-09-26T16:32:25.552Z,23.20
2023-09-26T16:36:10.136Z,23.00
2023-09-26T16:42:03.688Z,22.60
2023-09-26T16:45:27.479Z,22.50
2023-09-26T16:48:15.186Z,22.60
2023-09-26T16:51:00.922Z,22.70
2023-09-26T16:53:49.693Z,22.50
2023-09-26T16:56:44.401Z,22.50
2023-09-26T16:59:19.740Z,22.40
2023-09-26T17:02:16.556Z,22.30
2023-09-26T17:11:28.409Z,21.60
2023-09-26T17:14:13.852Z,21.60
2023-09-26T17:17:17.857Z,22.30
2023-09-26T17:20:16.599Z,21.10
2023-09-26T17:23:17.404Z,21.40
2023-09-26T17:26:02.363Z,21.00
2023-09-26T17:29:01.353Z,20.60
2023-09-26T17:31:49.075Z,20.40
2023-09-26T17:34:38.492Z,21.10
2023-09-26T17:37:34.627Z,20.40
2023-09-26T17:40:39.994Z,20.40
2023-09-26T17:43:54.748Z,21.10
2023-09-26T17:53:17.945Z,19.80
2023-09-26T17:56:25.055Z,19.50
2023-09-26T17:59:30.588Z,19.60
2023-09-26T18:05:09.345Z,19.20
2023-09-26T18:08:08.339Z,19.10
2023-09-26T18:10:36.720Z,19.40
2023-09-26T18:13:04.079Z,19.30
2023-09-26T18:15:32.707Z,19.60
2023-09-26T18:18:01.598Z,19.40
2023-09-26T18:20:31.141Z,18.90
2023-09-26T18:22:58.835Z,18.80
2023-09-26T18:25:26.194Z,19.00
2023-09-26T18:32:36.274Z,19.00
2023-09-26T18:35:59.656Z,18.70
2023-09-26T18:36:57.697Z,19.10
2023-09-26T18:39:56.399Z,18.80
2023-09-26T18:42:40.904Z,18.50
2023-09-26T18:45:45.295Z,19.00
2023-09-26T18:48:44.680Z,18.90
2023-09-26T18:51:58.417Z,18.90
2023-09-26T18:54:50.947Z,18.10
2023-09-26T18:58:16.989Z,18.10
2023-09-26T19:01:23.084Z,17.90
2023-09-26T19:04:26.345Z,18.00
2023-09-26T19:17:20.305Z,17.80
2023-09-26T19:20:26.249Z,17.50
2023-09-26T19:23:28.357Z,17.30
2023-09-26T19:26:34.791Z,17.20
2023-09-26T19:29:47.356Z,17.50
2023-09-26T19:32:39.589Z,17.90
2023-09-26T19:35:24.639Z,17.70
2023-09-26T19:42:00.231Z,17.90
2023-09-26T19:48:53.738Z,17.20
2023-09-26T19:52:19.049Z,16.80
2023-09-26T19:55:08.927Z,16.90
2023-09-26T19:58:35.082Z,17.30
2023-09-26T20:01:25.703Z,17.40
2023-09-26T20:04:22.452Z,17.20
2023-09-26T20:07:28.844Z,17.20
2023-09-26T20:10:14.013Z,17.00
2023-09-26T20:16:00.235Z,16.90
2023-09-26T20:22:11.477Z,16.60
2023-09-26T20:25:06.145Z,16.60
2023-09-26T20:28:07.970Z,16.80
2023-09-26T20:33:46.790Z,16.80
2023-09-26T20:36:49.831Z,16.60
2023-09-26T20:39:38.908Z,16.60
2023-09-26T20:42:48.519Z,16.50
2023-09-26T20:45:33.728Z,16.10
2023-09-26T20:48:43.120Z,16.30
2023-09-26T20:51:53.945Z,16.80
2023-09-26T21:01:35.295Z,15.90
2023-09-26T21:04:44.646Z,16.00
2023-09-26T21:07:30.582Z,16.30
2023-09-26T21:10:23.962Z,16.30
2023-09-26T21:19:40.550Z,15.60
2023-09-26T21:22:43.177Z,15.90
2023-09-26T21:29:15.053Z,16.00
2023-09-26T21:32:01.488Z,15.50
2023-09-26T21:36:09.917Z,15.50
2023-09-26T21:42:23.462Z,15.10
2023-09-26T21:48:16.702Z,15.30
2023-09-26T21:57:32.231Z,14.90
2023-09-26T22:02:59.899Z,15.30
2023-09-26T22:05:27.151Z,15.40
2023-09-26T22:07:56.967Z,15.10
2023-09-26T22:10:25.293Z,15.20
2023-09-26T22:12:52.269Z,15.40
2023-09-26T22:15:20.178Z,15.40
2023-09-26T22:17:48.040Z,15.60
2023-09-26T22:20:18.050Z,15.50
2023-09-26T22:22:45.840Z,15.80
2023-09-26T22:25:15.184Z,15.50
2023-09-26T22:27:43.538Z,15.30
2023-09-26T22:30:11.592Z,15.20
2023-09-26T22:32:40.348Z,15.30
2023-09-26T22:35:08.503Z,15.70
2023-09-26T22:37:36.666Z,15.60
2023-09-26T22:40:08.389Z,15.50
2023-09-26T22:42:35.666Z,15.30
2023-09-26T22:45:04.780Z,15.60
2023-09-26T22:47:33.375Z,15.40
2023-09-26T22:50:05.291Z,15.70
2023-09-26T22:52:37.074Z,15.60
2023-09-26T22:55:04.823Z,15.30
2023-09-26T22:57:32.292Z,15.60
2023-09-26T22:59:59.463Z,15.30
2023-09-26T23:02:26.809Z,15.30
2023-09-26T23:04:54.243Z,15.40
2023-09-26T23:07:21.799Z,15.50
2023-09-26T23:09:48.804Z,15.70
2023-09-26T23:12:16.677Z,15.40
2023-09-26T23:14:44.046Z,15.10
2023-09-26T23:17:12.328Z,15.10
2023-09-26T23:19:39.536Z,15.30
2023-09-26T23:22:07.410Z,15.10
2023-09-26T23:24:34.831Z,15.10
2023-09-26T23:27:02.193Z,15.10
2023-09-26T23:29:29.341Z,14.70
2023-09-26T23:31:56.745Z,15.00
2023-09-26T23:35:12.634Z,15.10
2023-09-26T23:38:28.151Z,14.80
2023-09-26T23:41:46.530Z,14.70
2023-09-26T23:44:15.776Z,14.60
2023-09-26T23:46:43.307Z,15.20
2023-09-26T23:49:10.269Z,15.20
2023-09-26T23:51:37.120Z,14.70
2023-09-26T23:54:04.862Z,14.70
2023-09-26T23:56:31.854Z,14.60
2023-09-26T23:58:58.805Z,14.80
